KAAF/AAF METAR and TAF weather

Enter ICAO airport designator
Station Type Date Time Source
KAAF METAR 2020/11/28 18:53 UTC NOAA

KAAF 281853Z AUTO 36008KT 10SM OVC080 23/19 A3002 RMK AO2 SLP164 T02280194


Station Type Date Time Source
KAAF Decoded METAR 2020/11/28 18:53 UTC NOAA

APALACHICOLA MUNICIPAL AIRPORT, FL, United States (KAAF) 29-44N 085-01W 5M
Nov 28, 2020 - 01:53 PM EST / 2020.11.28 1853 UTC
Wind: from the N (360 degrees) at 9 MPH (8 KT):0
Visibility: 10 mile(s):0
Sky conditions: overcast
Temperature: 73.0 F (22.8 C)
Dew Point: 66.9 F (19.4 C)
Relative Humidity: 81%
Pressure (altimeter): 30.02 in. Hg (1016 hPa)
ob: KAAF 281853Z AUTO 36008KT 10SM OVC080 23/19 A3002 RMK AO2 SLP164 T02280194
cycle: 19

Station Type Date Time Source
KAAF TAF UTC NOAA

Error!

Example: see airport list